sensor_id;sensor_type;location;lat;lon;timestamp;P1;durP1;ratioP1;P2;durP2;ratioP2
77769;SDS011;66961;51.482;9.160;2023-08-01T00:00:40;4.15;;;1.10;;
77769;SDS011;66961;51.482;9.160;2023-08-01T00:03:05;4.45;;;1.25;;
77769;SDS011;66961;51.482;9.160;2023-08-01T00:05:31;4.70;;;1.20;;
77769;SDS011;66961;51.482;9.160;2023-08-01T00:07:56;2.20;;;1.25;;
77769;SDS011;66961;51.482;9.160;2023-08-01T00:10:21;2.43;;;1.10;;
77769;SDS011;66961;51.482;9.160;2023-08-01T00:12:47;3.33;;;1.13;;
77769;SDS011;66961;51.482;9.160;2023-08-01T00:15:12;1.73;;;0.97;;
77769;SDS011;66961;51.482;9.160;2023-08-01T00:17:37;4.67;;;1.13;;
77769;SDS011;66961;51.482;9.160;2023-08-01T00:20:03;3.10;;;1.10;;
77769;SDS011;66961;51.482;9.160;2023-08-01T00:22:28;2.17;;;1.10;;
77769;SDS011;66961;51.482;9.160;2023-08-01T00:24:54;2.03;;;1.05;;
77769;SDS011;66961;51.482;9.160;2023-08-01T00:27:20;4.15;;;1.13;;
77769;SDS011;66961;51.482;9.160;2023-08-01T00:29:45;3.08;;;1.25;;
77769;SDS011;66961;51.482;9.160;2023-08-01T00:32:11;2.10;;;1.40;;
77769;SDS011;66961;51.482;9.160;2023-08-01T00:34:36;4.35;;;1.10;;
77769;SDS011;66961;51.482;9.160;2023-08-01T00:37:02;6.93;;;1.60;;
77769;SDS011;66961;51.482;9.160;2023-08-01T00:39:27;2.95;;;1.20;;
77769;SDS011;66961;51.482;9.160;2023-08-01T00:41:52;2.60;;;1.15;;
77769;SDS011;66961;51.482;9.160;2023-08-01T00:44:18;3.70;;;1.40;;
77769;SDS011;66961;51.482;9.160;2023-08-01T00:46:43;9.73;;;1.50;;
77769;SDS011;66961;51.482;9.160;2023-08-01T00:49:09;5.95;;;1.58;;
77769;SDS011;66961;51.482;9.160;2023-08-01T00:51:34;4.85;;;1.50;;
77769;SDS011;66961;51.482;9.160;2023-08-01T00:54:00;6.88;;;1.35;;
77769;SDS011;66961;51.482;9.160;2023-08-01T00:56:26;6.23;;;1.70;;
77769;SDS011;66961;51.482;9.160;2023-08-01T00:58:51;2.63;;;1.15;;
77769;SDS011;66961;51.482;9.160;2023-08-01T01:01:17;2.60;;;1.05;;
77769;SDS011;66961;51.482;9.160;2023-08-01T01:03:42;2.92;;;1.20;;
77769;SDS011;66961;51.482;9.160;2023-08-01T01:08:36;3.50;;;1.00;;
77769;SDS011;66961;51.482;9.160;2023-08-01T01:11:02;2.50;;;1.20;;
77769;SDS011;66961;51.482;9.160;2023-08-01T01:13:27;3.57;;;1.30;;
77769;SDS011;66961;51.482;9.160;2023-08-01T01:15:52;2.43;;;1.07;;
77769;SDS011;66961;51.482;9.160;2023-08-01T01:18:17;2.30;;;1.33;;
77769;SDS011;66961;51.482;9.160;2023-08-01T01:20:43;4.13;;;1.53;;
77769;SDS011;66961;51.482;9.160;2023-08-01T01:23:08;3.60;;;1.20;;
77769;SDS011;66961;51.482;9.160;2023-08-01T01:25:34;3.60;;;1.58;;
77769;SDS011;66961;51.482;9.160;2023-08-01T01:28:01;6.47;;;1.88;;
77769;SDS011;66961;51.482;9.160;2023-08-01T01:30:29;3.10;;;1.00;;
77769;SDS011;66961;51.482;9.160;2023-08-01T01:32:55;6.70;;;1.70;;
77769;SDS011;66961;51.482;9.160;2023-08-01T01:35:20;3.78;;;1.83;;
77769;SDS011;66961;51.482;9.160;2023-08-01T01:37:46;5.07;;;1.40;;
77769;SDS011;66961;51.482;9.160;2023-08-01T01:40:11;3.17;;;1.50;;
77769;SDS011;66961;51.482;9.160;2023-08-01T01:42:36;3.83;;;1.58;;
77769;SDS011;66961;51.482;9.160;2023-08-01T01:45:02;3.85;;;1.38;;
77769;SDS011;66961;51.482;9.160;2023-08-01T01:47:27;2.75;;;1.30;;
77769;SDS011;66961;51.482;9.160;2023-08-01T01:49:53;6.47;;;1.50;;
77769;SDS011;66961;51.482;9.160;2023-08-01T01:52:18;4.90;;;1.30;;
77769;SDS011;66961;51.482;9.160;2023-08-01T01:54:43;5.50;;;1.60;;
77769;SDS011;66961;51.482;9.160;2023-08-01T01:57:09;4.83;;;1.53;;
77769;SDS011;66961;51.482;9.160;2023-08-01T01:59:34;2.77;;;1.47;;
77769;SDS011;66961;51.482;9.160;2023-08-01T02:01:59;1.97;;;1.20;;
77769;SDS011;66961;51.482;9.160;2023-08-01T02:04:24;2.43;;;1.30;;
77769;SDS011;66961;51.482;9.160;2023-08-01T02:06:50;3.97;;;1.30;;
77769;SDS011;66961;51.482;9.160;2023-08-01T02:09:15;2.27;;;1.03;;
77769;SDS011;66961;51.482;9.160;2023-08-01T02:11:40;2.67;;;1.40;;
77769;SDS011;66961;51.482;9.160;2023-08-01T02:14:05;3.17;;;1.33;;
77769;SDS011;66961;51.482;9.160;2023-08-01T02:16:31;2.50;;;1.03;;
77769;SDS011;66961;51.482;9.160;2023-08-01T02:18:56;2.38;;;1.02;;
77769;SDS011;66961;51.482;9.160;2023-08-01T02:21:21;3.37;;;1.23;;
77769;SDS011;66961;51.482;9.160;2023-08-01T02:23:46;1.77;;;1.17;;
77769;SDS011;66961;51.482;9.160;2023-08-01T02:26:12;1.73;;;0.80;;
77769;SDS011;66961;51.482;9.160;2023-08-01T02:28:37;1.93;;;1.07;;
77769;SDS011;66961;51.482;9.160;2023-08-01T02:31:02;2.47;;;0.90;;
77769;SDS011;66961;51.482;9.160;2023-08-01T02:33:28;1.42;;;0.90;;
77769;SDS011;66961;51.482;9.160;2023-08-01T02:35:53;1.77;;;0.85;;
77769;SDS011;66961;51.482;9.160;2023-08-01T02:38:18;1.65;;;0.90;;
77769;SDS011;66961;51.482;9.160;2023-08-01T02:40:43;2.20;;;0.88;;
77769;SDS011;66961;51.482;9.160;2023-08-01T02:43:09;3.47;;;0.50;;
77769;SDS011;66961;51.482;9.160;2023-08-01T02:45:34;2.50;;;0.80;;
77769;SDS011;66961;51.482;9.160;2023-08-01T02:47:59;1.70;;;0.63;;
77769;SDS011;66961;51.482;9.160;2023-08-01T02:50:25;1.47;;;0.63;;
77769;SDS011;66961;51.482;9.160;2023-08-01T02:52:50;2.10;;;0.80;;
77769;SDS011;66961;51.482;9.160;2023-08-01T02:55:15;4.68;;;0.88;;
77769;SDS011;66961;51.482;9.160;2023-08-01T02:57:41;1.17;;;0.55;;
77769;SDS011;66961;51.482;9.160;2023-08-01T03:00:06;1.10;;;0.60;;
77769;SDS011;66961;51.482;9.160;2023-08-01T03:02:32;1.67;;;0.57;;
77769;SDS011;66961;51.482;9.160;2023-08-01T03:04:57;1.70;;;0.57;;
77769;SDS011;66961;51.482;9.160;2023-08-01T03:07:22;1.48;;;0.60;;
77769;SDS011;66961;51.482;9.160;2023-08-01T03:09:48;1.02;;;0.60;;
77769;SDS011;66961;51.482;9.160;2023-08-01T03:12:13;1.63;;;0.50;;
77769;SDS011;66961;51.482;9.160;2023-08-01T03:14:38;2.37;;;0.67;;
77769;SDS011;66961;51.482;9.160;2023-08-01T03:17:03;5.57;;;0.90;;
77769;SDS011;66961;51.482;9.160;2023-08-01T03:19:29;1.50;;;0.70;;
77769;SDS011;66961;51.482;9.160;2023-08-01T03:21:55;0.90;;;0.60;;
77769;SDS011;66961;51.482;9.160;2023-08-01T03:24:20;1.75;;;0.60;;
77769;SDS011;66961;51.482;9.160;2023-08-01T03:26:45;3.67;;;0.77;;
77769;SDS011;66961;51.482;9.160;2023-08-01T03:29:11;1.43;;;0.63;;
77769;SDS011;66961;51.482;9.160;2023-08-01T03:31:36;2.23;;;0.60;;
77769;SDS011;66961;51.482;9.160;2023-08-01T03:34:01;2.37;;;0.60;;
77769;SDS011;66961;51.482;9.160;2023-08-01T03:36:26;1.02;;;0.50;;
77769;SDS011;66961;51.482;9.160;2023-08-01T03:38:52;2.43;;;0.70;;
77769;SDS011;66961;51.482;9.160;2023-08-01T03:41:17;2.53;;;0.70;;
77769;SDS011;66961;51.482;9.160;2023-08-01T03:43:42;2.83;;;0.68;;
77769;SDS011;66961;51.482;9.160;2023-08-01T03:46:08;3.10;;;0.40;;
77769;SDS011;66961;51.482;9.160;2023-08-01T03:48:34;1.35;;;0.50;;
77769;SDS011;66961;51.482;9.160;2023-08-01T03:50:59;1.58;;;0.40;;
77769;SDS011;66961;51.482;9.160;2023-08-01T03:53:25;2.43;;;0.60;;
77769;SDS011;66961;51.482;9.160;2023-08-01T03:55:50;6.73;;;0.73;;
77769;SDS011;66961;51.482;9.160;2023-08-01T03:58:15;4.73;;;0.50;;
77769;SDS011;66961;51.482;9.160;2023-08-01T04:00:41;3.05;;;0.77;;
77769;SDS011;66961;51.482;9.160;2023-08-01T04:03:06;3.60;;;0.60;;
77769;SDS011;66961;51.482;9.160;2023-08-01T04:05:32;1.65;;;0.60;;
77769;SDS011;66961;51.482;9.160;2023-08-01T04:07:57;2.00;;;0.70;;
77769;SDS011;66961;51.482;9.160;2023-08-01T04:10:22;3.20;;;0.50;;
77769;SDS011;66961;51.482;9.160;2023-08-01T04:12:48;4.82;;;0.70;;
77769;SDS011;66961;51.482;9.160;2023-08-01T04:15:13;9.82;;;0.63;;
77769;SDS011;66961;51.482;9.160;2023-08-01T04:17:39;2.67;;;0.40;;
77769;SDS011;66961;51.482;9.160;2023-08-01T04:20:04;1.93;;;0.60;;
77769;SDS011;66961;51.482;9.160;2023-08-01T04:22:30;3.22;;;0.30;;
77769;SDS011;66961;51.482;9.160;2023-08-01T04:24:55;1.42;;;0.30;;
77769;SDS011;66961;51.482;9.160;2023-08-01T04:27:20;1.00;;;0.20;;
77769;SDS011;66961;51.482;9.160;2023-08-01T04:29:47;1.30;;;0.30;;
77769;SDS011;66961;51.482;9.160;2023-08-01T04:32:12;2.10;;;0.28;;
77769;SDS011;66961;51.482;9.160;2023-08-01T04:34:38;2.27;;;0.13;;
77769;SDS011;66961;51.482;9.160;2023-08-01T04:37:03;2.53;;;0.40;;
77769;SDS011;66961;51.482;9.160;2023-08-01T04:39:29;1.48;;;0.13;;
77769;SDS011;66961;51.482;9.160;2023-08-01T04:41:54;1.63;;;0.10;;
77769;SDS011;66961;51.482;9.160;2023-08-01T04:44:19;0.43;;;0.10;;
77769;SDS011;66961;51.482;9.160;2023-08-01T04:46:44;1.97;;;0.30;;
77769;SDS011;66961;51.482;9.160;2023-08-01T04:49:10;0.50;;;0.10;;
77769;SDS011;66961;51.482;9.160;2023-08-01T04:51:35;0.50;;;0.10;;
77769;SDS011;66961;51.482;9.160;2023-08-01T04:54:00;0.40;;;0.10;;
77769;SDS011;66961;51.482;9.160;2023-08-01T04:56:25;0.73;;;0.20;;
77769;SDS011;66961;51.482;9.160;2023-08-01T04:58:51;0.63;;;0.10;;
77769;SDS011;66961;51.482;9.160;2023-08-01T05:01:16;0.70;;;0.10;;
77769;SDS011;66961;51.482;9.160;2023-08-01T05:03:41;0.43;;;0.13;;
77769;SDS011;66961;51.482;9.160;2023-08-01T05:06:07;0.23;;;0.10;;
77769;SDS011;66961;51.482;9.160;2023-08-01T05:08:32;0.40;;;0.10;;
77769;SDS011;66961;51.482;9.160;2023-08-01T05:10:58;0.73;;;0.22;;
77769;SDS011;66961;51.482;9.160;2023-08-01T05:13:23;0.97;;;0.27;;
77769;SDS011;66961;51.482;9.160;2023-08-01T05:15:48;0.60;;;0.10;;
77769;SDS011;66961;51.482;9.160;2023-08-01T05:18:15;1.23;;;0.27;;
77769;SDS011;66961;51.482;9.160;2023-08-01T05:20:41;0.63;;;0.30;;
77769;SDS011;66961;51.482;9.160;2023-08-01T05:23:06;0.43;;;0.30;;
77769;SDS011;66961;51.482;9.160;2023-08-01T05:25:31;0.80;;;0.37;;
77769;SDS011;66961;51.482;9.160;2023-08-01T05:27:57;1.63;;;0.63;;
77769;SDS011;66961;51.482;9.160;2023-08-01T05:30:22;1.20;;;0.80;;
77769;SDS011;66961;51.482;9.160;2023-08-01T05:32:48;1.58;;;1.10;;
77769;SDS011;66961;51.482;9.160;2023-08-01T05:35:14;5.63;;;1.37;;
77769;SDS011;66961;51.482;9.160;2023-08-01T05:37:39;2.20;;;1.30;;
77769;SDS011;66961;51.482;9.160;2023-08-01T05:40:04;1.70;;;1.10;;
77769;SDS011;66961;51.482;9.160;2023-08-01T05:42:30;2.72;;;1.27;;
77769;SDS011;66961;51.482;9.160;2023-08-01T05:44:56;2.33;;;1.63;;
77769;SDS011;66961;51.482;9.160;2023-08-01T05:47:21;1.70;;;1.40;;
77769;SDS011;66961;51.482;9.160;2023-08-01T05:49:46;4.82;;;1.98;;
77769;SDS011;66961;51.482;9.160;2023-08-01T05:52:12;2.60;;;1.80;;
77769;SDS011;66961;51.482;9.160;2023-08-01T05:54:37;5.30;;;2.30;;
77769;SDS011;66961;51.482;9.160;2023-08-01T05:57:02;3.07;;;2.03;;
77769;SDS011;66961;51.482;9.160;2023-08-01T05:59:28;4.20;;;2.33;;
77769;SDS011;66961;51.482;9.160;2023-08-01T06:01:53;3.65;;;2.20;;
77769;SDS011;66961;51.482;9.160;2023-08-01T06:04:18;3.93;;;2.70;;
77769;SDS011;66961;51.482;9.160;2023-08-01T06:06:44;3.03;;;2.63;;
77769;SDS011;66961;51.482;9.160;2023-08-01T06:09:09;5.10;;;3.73;;
77769;SDS011;66961;51.482;9.160;2023-08-01T06:11:34;4.53;;;3.13;;
77769;SDS011;66961;51.482;9.160;2023-08-01T06:13:59;4.23;;;3.60;;
77769;SDS011;66961;51.482;9.160;2023-08-01T06:16:25;5.15;;;4.28;;
77769;SDS011;66961;51.482;9.160;2023-08-01T06:18:50;6.40;;;4.37;;
77769;SDS011;66961;51.482;9.160;2023-08-01T06:21:16;6.17;;;4.70;;
77769;SDS011;66961;51.482;9.160;2023-08-01T06:23:41;7.40;;;5.60;;
77769;SDS011;66961;51.482;9.160;2023-08-01T06:26:06;8.67;;;6.60;;
77769;SDS011;66961;51.482;9.160;2023-08-01T06:28:31;10.43;;;7.07;;
77769;SDS011;66961;51.482;9.160;2023-08-01T06:30:57;11.20;;;7.90;;
77769;SDS011;66961;51.482;9.160;2023-08-01T06:33:22;12.03;;;8.67;;
77769;SDS011;66961;51.482;9.160;2023-08-01T06:35:47;16.80;;;11.10;;
77769;SDS011;66961;51.482;9.160;2023-08-01T06:38:12;13.73;;;11.00;;
77769;SDS011;66961;51.482;9.160;2023-08-01T06:40:38;16.57;;;12.30;;
77769;SDS011;66961;51.482;9.160;2023-08-01T06:43:03;17.40;;;12.27;;
77769;SDS011;66961;51.482;9.160;2023-08-01T06:45:28;18.87;;;12.07;;
77769;SDS011;66961;51.482;9.160;2023-08-01T06:47:53;19.77;;;13.97;;
77769;SDS011;66961;51.482;9.160;2023-08-01T06:50:19;18.17;;;14.13;;
77769;SDS011;66961;51.482;9.160;2023-08-01T06:52:44;18.33;;;13.20;;
77769;SDS011;66961;51.482;9.160;2023-08-01T06:55:09;20.17;;;14.13;;
77769;SDS011;66961;51.482;9.160;2023-08-01T06:57:34;19.67;;;13.63;;
77769;SDS011;66961;51.482;9.160;2023-08-01T07:00:00;18.30;;;13.37;;
77769;SDS011;66961;51.482;9.160;2023-08-01T07:02:25;19.00;;;12.17;;
77769;SDS011;66961;51.482;9.160;2023-08-01T07:04:50;17.43;;;11.80;;
77769;SDS011;66961;51.482;9.160;2023-08-01T07:07:15;19.43;;;12.03;;
77769;SDS011;66961;51.482;9.160;2023-08-01T07:09:41;16.85;;;13.23;;
77769;SDS011;66961;51.482;9.160;2023-08-01T07:12:06;16.60;;;13.17;;
77769;SDS011;66961;51.482;9.160;2023-08-01T07:14:32;16.30;;;12.45;;
77769;SDS011;66961;51.482;9.160;2023-08-01T07:16:57;16.40;;;12.30;;
77769;SDS011;66961;51.482;9.160;2023-08-01T07:19:22;17.90;;;11.90;;
77769;SDS011;66961;51.482;9.160;2023-08-01T07:21:47;17.33;;;12.33;;
77769;SDS011;66961;51.482;9.160;2023-08-01T07:24:13;14.83;;;12.10;;
77769;SDS011;66961;51.482;9.160;2023-08-01T07:26:38;16.73;;;12.55;;
77769;SDS011;66961;51.482;9.160;2023-08-01T07:29:03;16.52;;;11.80;;
77769;SDS011;66961;51.482;9.160;2023-08-01T07:31:29;15.60;;;12.20;;
77769;SDS011;66961;51.482;9.160;2023-08-01T07:33:54;15.20;;;11.93;;
77769;SDS011;66961;51.482;9.160;2023-08-01T07:36:19;15.93;;;12.37;;
77769;SDS011;66961;51.482;9.160;2023-08-01T07:38:44;17.50;;;12.40;;
77769;SDS011;66961;51.482;9.160;2023-08-01T07:41:10;14.60;;;10.97;;
77769;SDS011;66961;51.482;9.160;2023-08-01T07:43:35;16.43;;;11.10;;
77769;SDS011;66961;51.482;9.160;2023-08-01T07:46:00;14.87;;;11.07;;
77769;SDS011;66961;51.482;9.160;2023-08-01T07:48:25;18.03;;;11.77;;
77769;SDS011;66961;51.482;9.160;2023-08-01T07:50:51;17.40;;;11.98;;
77769;SDS011;66961;51.482;9.160;2023-08-01T07:53:16;14.18;;;10.90;;
77769;SDS011;66961;51.482;9.160;2023-08-01T07:55:41;16.80;;;10.73;;
77769;SDS011;66961;51.482;9.160;2023-08-01T07:58:07;14.48;;;11.20;;
77769;SDS011;66961;51.482;9.160;2023-08-01T08:00:34;12.13;;;8.67;;
77769;SDS011;66961;51.482;9.160;2023-08-01T08:03:00;15.43;;;10.65;;
77769;SDS011;66961;51.482;9.160;2023-08-01T08:05:25;15.63;;;10.05;;
77769;SDS011;66961;51.482;9.160;2023-08-01T08:07:50;13.82;;;9.68;;
77769;SDS011;66961;51.482;9.160;2023-08-01T08:10:16;12.53;;;9.37;;
77769;SDS011;66961;51.482;9.160;2023-08-01T08:12:41;9.53;;;8.00;;
77769;SDS011;66961;51.482;9.160;2023-08-01T08:15:06;12.40;;;8.70;;
77769;SDS011;66961;51.482;9.160;2023-08-01T08:17:32;10.40;;;7.85;;
77769;SDS011;66961;51.482;9.160;2023-08-01T08:19:57;10.47;;;8.07;;
77769;SDS011;66961;51.482;9.160;2023-08-01T08:22:22;14.70;;;8.23;;
77769;SDS011;66961;51.482;9.160;2023-08-01T08:24:48;12.87;;;8.33;;
77769;SDS011;66961;51.482;9.160;2023-08-01T08:27:13;12.60;;;8.40;;
77769;SDS011;66961;51.482;9.160;2023-08-01T08:29:38;13.43;;;8.50;;
77769;SDS011;66961;51.482;9.160;2023-08-01T08:32:04;13.35;;;8.27;;
77769;SDS011;66961;51.482;9.160;2023-08-01T08:34:29;9.75;;;7.05;;
77769;SDS011;66961;51.482;9.160;2023-08-01T08:36:55;10.40;;;7.10;;
77769;SDS011;66961;51.482;9.160;2023-08-01T08:39:20;11.53;;;6.53;;
77769;SDS011;66961;51.482;9.160;2023-08-01T08:41:46;8.30;;;5.90;;
77769;SDS011;66961;51.482;9.160;2023-08-01T08:44:16;7.70;;;5.35;;
77769;SDS011;66961;51.482;9.160;2023-08-01T08:46:42;7.60;;;5.20;;
77769;SDS011;66961;51.482;9.160;2023-08-01T08:49:09;10.82;;;5.35;;
77769;SDS011;66961;51.482;9.160;2023-08-01T08:51:35;7.05;;;4.40;;
77769;SDS011;66961;51.482;9.160;2023-08-01T08:54:02;8.57;;;5.63;;
77769;SDS011;66961;51.482;9.160;2023-08-01T08:56:29;6.78;;;4.90;;
77769;SDS011;66961;51.482;9.160;2023-08-01T08:58:55;6.38;;;4.43;;
77769;SDS011;66961;51.482;9.160;2023-08-01T09:01:21;6.47;;;4.43;;
77769;SDS011;66961;51.482;9.160;2023-08-01T09:03:46;6.63;;;4.60;;
77769;SDS011;66961;51.482;9.160;2023-08-01T09:06:14;6.90;;;4.57;;
77769;SDS011;66961;51.482;9.160;2023-08-01T09:08:40;8.38;;;5.35;;
77769;SDS011;66961;51.482;9.160;2023-08-01T09:11:14;7.22;;;4.95;;
77769;SDS011;66961;51.482;9.160;2023-08-01T09:13:39;9.07;;;5.57;;
77769;SDS011;66961;51.482;9.160;2023-08-01T09:16:05;6.80;;;5.18;;
77769;SDS011;66961;51.482;9.160;2023-08-01T09:18:32;9.77;;;5.45;;
77769;SDS011;66961;51.482;9.160;2023-08-01T09:20:57;8.80;;;5.40;;
77769;SDS011;66961;51.482;9.160;2023-08-01T09:23:24;12.20;;;5.40;;
77769;SDS011;66961;51.482;9.160;2023-08-01T09:25:50;7.65;;;4.95;;
77769;SDS011;66961;51.482;9.160;2023-08-01T09:28:19;6.83;;;4.83;;
77769;SDS011;66961;51.482;9.160;2023-08-01T09:30:49;11.23;;;5.50;;
77769;SDS011;66961;51.482;9.160;2023-08-01T09:33:15;6.70;;;4.45;;
77769;SDS011;66961;51.482;9.160;2023-08-01T09:35:41;7.40;;;4.90;;
77769;SDS011;66961;51.482;9.160;2023-08-01T09:38:07;8.32;;;5.03;;
77769;SDS011;66961;51.482;9.160;2023-08-01T09:40:36;7.03;;;4.80;;
77769;SDS011;66961;51.482;9.160;2023-08-01T09:43:01;10.40;;;4.97;;
77769;SDS011;66961;51.482;9.160;2023-08-01T09:45:27;9.70;;;4.80;;
77769;SDS011;66961;51.482;9.160;2023-08-01T09:47:52;7.57;;;4.53;;
77769;SDS011;66961;51.482;9.160;2023-08-01T09:50:21;7.40;;;4.67;;
77769;SDS011;66961;51.482;9.160;2023-08-01T09:55:13;8.80;;;4.93;;
77769;SDS011;66961;51.482;9.160;2023-08-01T09:57:38;6.53;;;4.82;;
77769;SDS011;66961;51.482;9.160;2023-08-01T10:00:08;7.55;;;4.85;;
77769;SDS011;66961;51.482;9.160;2023-08-01T10:02:33;6.63;;;4.00;;
77769;SDS011;66961;51.482;9.160;2023-08-01T10:05:00;8.98;;;4.95;;
77769;SDS011;66961;51.482;9.160;2023-08-01T10:07:26;6.68;;;4.22;;
77769;SDS011;66961;51.482;9.160;2023-08-01T10:09:54;6.55;;;4.07;;
77769;SDS011;66961;51.482;9.160;2023-08-01T10:12:20;6.07;;;4.13;;
77769;SDS011;66961;51.482;9.160;2023-08-01T10:14:47;5.25;;;3.60;;
77769;SDS011;66961;51.482;9.160;2023-08-01T10:17:13;6.13;;;4.35;;
77769;SDS011;66961;51.482;9.160;2023-08-01T10:19:40;5.70;;;3.47;;
77769;SDS011;66961;51.482;9.160;2023-08-01T10:22:06;5.80;;;4.00;;
77769;SDS011;66961;51.482;9.160;2023-08-01T10:24:33;4.93;;;3.78;;
77769;SDS011;66961;51.482;9.160;2023-08-01T10:27:12;6.18;;;3.88;;
77769;SDS011;66961;51.482;9.160;2023-08-01T10:29:38;7.55;;;4.00;;
77769;SDS011;66961;51.482;9.160;2023-08-01T10:32:03;7.07;;;4.53;;
77769;SDS011;66961;51.482;9.160;2023-08-01T10:34:31;5.63;;;4.05;;
77769;SDS011;66961;51.482;9.160;2023-08-01T10:36:57;6.03;;;4.05;;
77769;SDS011;66961;51.482;9.160;2023-08-01T10:39:23;5.13;;;3.80;;
77769;SDS011;66961;51.482;9.160;2023-08-01T10:42:00;6.63;;;3.60;;
77769;SDS011;66961;51.482;9.160;2023-08-01T10:44:28;6.28;;;3.72;;
77769;SDS011;66961;51.482;9.160;2023-08-01T10:46:58;5.57;;;3.50;;
77769;SDS011;66961;51.482;9.160;2023-08-01T10:49:37;4.68;;;3.35;;
77769;SDS011;66961;51.482;9.160;2023-08-01T10:52:23;5.55;;;3.40;;
77769;SDS011;66961;51.482;9.160;2023-08-01T10:54:58;6.43;;;3.30;;
77769;SDS011;66961;51.482;9.160;2023-08-01T10:57:26;4.60;;;3.35;;
77769;SDS011;66961;51.482;9.160;2023-08-01T10:59:52;5.80;;;3.38;;
77769;SDS011;66961;51.482;9.160;2023-08-01T11:02:20;5.18;;;3.28;;
77769;SDS011;66961;51.482;9.160;2023-08-01T11:04:54;4.28;;;2.97;;
77769;SDS011;66961;51.482;9.160;2023-08-01T11:07:27;4.65;;;3.13;;
77769;SDS011;66961;51.482;9.160;2023-08-01T11:12:33;8.55;;;3.53;;
77769;SDS011;66961;51.482;9.160;2023-08-01T11:15:02;4.22;;;3.30;;
77769;SDS011;66961;51.482;9.160;2023-08-01T11:17:28;6.90;;;3.20;;
77769;SDS011;66961;51.482;9.160;2023-08-01T11:20:03;4.05;;;3.05;;
77769;SDS011;66961;51.482;9.160;2023-08-01T11:22:30;4.53;;;2.90;;
77769;SDS011;66961;51.482;9.160;2023-08-01T11:24:56;4.28;;;2.95;;
77769;SDS011;66961;51.482;9.160;2023-08-01T11:27:21;5.90;;;3.00;;
77769;SDS011;66961;51.482;9.160;2023-08-01T11:29:46;3.50;;;2.88;;
77769;SDS011;66961;51.482;9.160;2023-08-01T11:32:12;7.25;;;3.80;;
77769;SDS011;66961;51.482;9.160;2023-08-01T11:34:40;7.35;;;3.53;;
77769;SDS011;66961;51.482;9.160;2023-08-01T11:37:07;8.27;;;4.13;;
77769;SDS011;66961;51.482;9.160;2023-08-01T11:39:32;6.03;;;4.05;;
77769;SDS011;66961;51.482;9.160;2023-08-01T11:41:58;7.22;;;3.88;;
77769;SDS011;66961;51.482;9.160;2023-08-01T11:44:24;6.40;;;3.47;;
77769;SDS011;66961;51.482;9.160;2023-08-01T11:46:49;4.07;;;2.60;;
77769;SDS011;66961;51.482;9.160;2023-08-01T11:49:14;4.50;;;3.17;;
77769;SDS011;66961;51.482;9.160;2023-08-01T11:51:40;4.70;;;2.80;;
77769;SDS011;66961;51.482;9.160;2023-08-01T11:54:08;4.65;;;2.63;;
77769;SDS011;66961;51.482;9.160;2023-08-01T11:56:33;4.38;;;2.40;;
77769;SDS011;66961;51.482;9.160;2023-08-01T11:58:59;3.90;;;2.28;;
77769;SDS011;66961;51.482;9.160;2023-08-01T12:01:32;5.20;;;2.22;;
77769;SDS011;66961;51.482;9.160;2023-08-01T12:04:03;3.25;;;2.60;;
77769;SDS011;66961;51.482;9.160;2023-08-01T12:06:30;5.10;;;2.60;;
77769;SDS011;66961;51.482;9.160;2023-08-01T12:09:05;5.53;;;2.47;;
77769;SDS011;66961;51.482;9.160;2023-08-01T12:11:31;3.78;;;2.33;;
77769;SDS011;66961;51.482;9.160;2023-08-01T12:14:15;4.97;;;2.33;;
77769;SDS011;66961;51.482;9.160;2023-08-01T12:16:49;3.80;;;1.90;;
77769;SDS011;66961;51.482;9.160;2023-08-01T12:19:18;3.53;;;1.95;;
77769;SDS011;66961;51.482;9.160;2023-08-01T12:21:44;3.65;;;1.70;;
77769;SDS011;66961;51.482;9.160;2023-08-01T12:24:09;3.47;;;2.28;;
77769;SDS011;66961;51.482;9.160;2023-08-01T12:26:35;3.10;;;1.60;;
77769;SDS011;66961;51.482;9.160;2023-08-01T12:29:00;3.92;;;1.88;;
77769;SDS011;66961;51.482;9.160;2023-08-01T12:31:26;5.23;;;2.03;;
77769;SDS011;66961;51.482;9.160;2023-08-01T12:33:51;3.87;;;2.10;;
77769;SDS011;66961;51.482;9.160;2023-08-01T12:36:16;3.07;;;1.93;;
77769;SDS011;66961;51.482;9.160;2023-08-01T12:38:41;3.47;;;1.90;;
77769;SDS011;66961;51.482;9.160;2023-08-01T12:41:07;3.72;;;1.70;;
77769;SDS011;66961;51.482;9.160;2023-08-01T12:43:33;3.53;;;1.58;;
77769;SDS011;66961;51.482;9.160;2023-08-01T12:45:58;3.63;;;1.88;;
77769;SDS011;66961;51.482;9.160;2023-08-01T12:48:24;2.50;;;1.80;;
77769;SDS011;66961;51.482;9.160;2023-08-01T12:50:50;2.95;;;1.65;;
77769;SDS011;66961;51.482;9.160;2023-08-01T12:53:15;4.53;;;1.80;;
77769;SDS011;66961;51.482;9.160;2023-08-01T12:55:44;3.00;;;1.55;;
77769;SDS011;66961;51.482;9.160;2023-08-01T12:58:10;3.45;;;1.50;;
77769;SDS011;66961;51.482;9.160;2023-08-01T13:00:35;3.20;;;1.70;;
77769;SDS011;66961;51.482;9.160;2023-08-01T13:03:01;2.47;;;1.50;;
77769;SDS011;66961;51.482;9.160;2023-08-01T13:05:26;5.27;;;1.80;;
77769;SDS011;66961;51.482;9.160;2023-08-01T13:07:51;4.37;;;1.90;;
77769;SDS011;66961;51.482;9.160;2023-08-01T13:10:17;2.57;;;1.90;;
77769;SDS011;66961;51.482;9.160;2023-08-01T13:12:42;3.37;;;1.67;;
77769;SDS011;66961;51.482;9.160;2023-08-01T13:15:08;6.43;;;2.13;;
77769;SDS011;66961;51.482;9.160;2023-08-01T13:17:33;2.70;;;1.70;;
77769;SDS011;66961;51.482;9.160;2023-08-01T13:19:59;2.50;;;1.55;;
77769;SDS011;66961;51.482;9.160;2023-08-01T13:22:24;2.73;;;1.40;;
77769;SDS011;66961;51.482;9.160;2023-08-01T13:24:49;3.00;;;1.42;;
77769;SDS011;66961;51.482;9.160;2023-08-01T13:27:15;2.30;;;1.43;;
77769;SDS011;66961;51.482;9.160;2023-08-01T13:29:40;3.87;;;2.03;;
77769;SDS011;66961;51.482;9.160;2023-08-01T13:32:05;2.80;;;1.00;;
77769;SDS011;66961;51.482;9.160;2023-08-01T13:34:31;1.70;;;0.90;;
77769;SDS011;66961;51.482;9.160;2023-08-01T13:36:57;2.30;;;1.00;;
77769;SDS011;66961;51.482;9.160;2023-08-01T13:39:22;4.28;;;1.20;;
77769;SDS011;66961;51.482;9.160;2023-08-01T13:41:47;1.63;;;1.17;;
77769;SDS011;66961;51.482;9.160;2023-08-01T13:44:13;3.90;;;1.63;;
77769;SDS011;66961;51.482;9.160;2023-08-01T13:46:38;3.37;;;1.43;;
77769;SDS011;66961;51.482;9.160;2023-08-01T13:49:03;3.30;;;1.50;;
77769;SDS011;66961;51.482;9.160;2023-08-01T13:51:30;2.90;;;1.50;;
77769;SDS011;66961;51.482;9.160;2023-08-01T13:53:57;3.63;;;1.50;;
77769;SDS011;66961;51.482;9.160;2023-08-01T13:56:22;4.23;;;1.70;;
77769;SDS011;66961;51.482;9.160;2023-08-01T13:58:47;3.27;;;1.30;;
77769;SDS011;66961;51.482;9.160;2023-08-01T14:01:13;4.33;;;1.27;;
77769;SDS011;66961;51.482;9.160;2023-08-01T14:03:38;2.00;;;1.30;;
77769;SDS011;66961;51.482;9.160;2023-08-01T14:06:07;2.83;;;1.45;;
77769;SDS011;66961;51.482;9.160;2023-08-01T14:08:38;2.42;;;1.80;;
77769;SDS011;66961;51.482;9.160;2023-08-01T14:11:05;3.20;;;1.63;;
77769;SDS011;66961;51.482;9.160;2023-08-01T14:13:32;2.95;;;1.60;;
77769;SDS011;66961;51.482;9.160;2023-08-01T14:15:58;2.45;;;1.60;;
77769;SDS011;66961;51.482;9.160;2023-08-01T14:18:23;3.70;;;1.30;;
77769;SDS011;66961;51.482;9.160;2023-08-01T14:20:49;3.95;;;1.40;;
77769;SDS011;66961;51.482;9.160;2023-08-01T14:23:14;2.75;;;1.58;;
77769;SDS011;66961;51.482;9.160;2023-08-01T14:25:40;2.97;;;1.13;;
77769;SDS011;66961;51.482;9.160;2023-08-01T14:28:05;2.67;;;1.20;;
77769;SDS011;66961;51.482;9.160;2023-08-01T14:30:31;2.40;;;1.35;;
77769;SDS011;66961;51.482;9.160;2023-08-01T14:33:00;2.45;;;1.50;;
77769;SDS011;66961;51.482;9.160;2023-08-01T14:35:29;2.45;;;1.15;;
77769;SDS011;66961;51.482;9.160;2023-08-01T14:37:54;3.15;;;1.30;;
77769;SDS011;66961;51.482;9.160;2023-08-01T14:40:20;2.30;;;1.25;;
77769;SDS011;66961;51.482;9.160;2023-08-01T14:42:45;3.25;;;1.13;;